Time;durP1;ratioP1;P1;durP2;ratioP2;P2;SDS_P1;SDS_P2;PMS_P1;PMS_P2;Temp;Humidity;BMP_temperature;BMP_pressure;BME280_temperature;BME280_humidity;BME280_pressure;Samples;Min_cycle;Max_cycle;Signal;HPM_P1;HPM_P2
2021/09/06 00:02:19;;;;;;;7.90;6.30;;;14.80;86.40;;;;;;5033804;28;20833;-70
2021/09/06 00:04:46;;;;;;;8.57;6.37;;;14.80;86.50;;;;;;5033334;28;20936;-69
2021/09/06 00:07:13;;;;;;;7.10;6.10;;;14.70;86.60;;;;;;5033541;28;20571;-71
2021/09/06 00:09:41;;;;;;;7.97;5.83;;;14.60;87.10;;;;;;5033793;28;20493;-69
2021/09/06 00:12:08;;;;;;;8.10;6.30;;;14.60;87.60;;;;;;5033044;28;20966;-69
2021/09/06 00:14:37;;;;;;;8.33;6.60;;;14.60;87.90;;;;;;5033470;28;20195;-70
2021/09/06 00:17:04;;;;;;;8.20;7.00;;;14.60;88.40;;;;;;5033049;28;20528;-70
2021/09/06 00:19:31;;;;;;;6.97;5.55;;;14.60;88.60;;;;;;5033005;28;20480;-69
2021/09/06 00:21:57;;;;;;;7.50;5.87;;;14.60;87.20;;;;;;5033107;28;20245;-69
2021/09/06 00:24:24;;;;;;;8.27;5.55;;;14.50;86.10;;;;;;5033161;28;20524;-69
2021/09/06 00:26:51;;;;;;;6.50;5.20;;;14.50;85.80;;;;;;5032945;28;20254;-71
2021/09/06 00:29:18;;;;;;;8.82;5.65;;;14.40;85.30;;;;;;5033219;28;20943;-70
2021/09/06 00:31:46;;;;;;;7.30;4.70;;;14.40;85.30;;;;;;5032718;28;20278;-69
2021/09/06 00:34:13;;;;;;;9.13;5.28;;;14.40;85.30;;;;;;5032998;28;20223;-71
2021/09/06 00:36:40;;;;;;;5.30;4.80;;;14.30;84.80;;;;;;5032856;28;20614;-69
2021/09/06 00:39:07;;;;;;;6.23;5.30;;;14.20;85.10;;;;;;5032537;28;20496;-69
2021/09/06 00:41:34;;;;;;;6.43;5.05;;;14.20;85.30;;;;;;5032805;28;20481;-69
2021/09/06 00:44:02;;;;;;;9.77;5.53;;;14.20;85.70;;;;;;5032643;28;20234;-69
2021/09/06 00:46:29;;;;;;;10.30;5.35;;;14.10;86.00;;;;;;5032637;28;20313;-69
2021/09/06 00:48:58;;;;;;;6.68;4.50;;;14.10;86.10;;;;;;5032451;28;20237;-69
2021/09/06 00:51:25;;;;;;;5.95;4.80;;;14.00;85.80;;;;;;5032546;28;20238;-69
2021/09/06 00:53:51;;;;;;;7.40;5.30;;;13.80;85.70;;;;;;5032090;28;20195;-71
2021/09/06 00:56:18;;;;;;;6.40;4.88;;;13.80;85.80;;;;;;5032245;28;20606;-69
2021/09/06 00:58:46;;;;;;;7.03;4.68;;;13.80;86.20;;;;;;5032558;28;20226;-69
2021/09/06 01:01:13;;;;;;;6.22;4.65;;;13.70;86.20;;;;;;5032661;28;20285;-69
2021/09/06 01:03:40;;;;;;;7.00;5.45;;;13.70;86.40;;;;;;5032734;28;20581;-69
2021/09/06 01:06:08;;;;;;;5.93;4.57;;;13.70;86.40;;;;;;5032504;28;20282;-69
2021/09/06 01:08:35;;;;;;;6.57;4.90;;;13.70;86.50;;;;;;5032521;28;20646;-69
2021/09/06 01:11:02;;;;;;;7.40;5.07;;;13.70;86.70;;;;;;5032664;28;20610;-69
2021/09/06 01:13:29;;;;;;;6.70;5.40;;;13.60;87.40;;;;;;5032405;28;20225;-69
2021/09/06 01:15:56;;;;;;;7.43;5.60;;;13.60;87.70;;;;;;5032531;28;20253;-69
2021/09/06 01:18:23;;;;;;;10.65;6.85;;;13.70;89.30;;;;;;5032407;28;20233;-69
2021/09/06 01:20:50;;;;;;;6.32;5.57;;;13.70;89.10;;;;;;5032274;28;20226;-69
2021/09/06 01:23:18;;;;;;;7.03;5.80;;;13.70;89.00;;;;;;5032041;28;20226;-69
2021/09/06 01:25:50;;;;;;;7.22;6.00;;;13.70;88.90;;;;;;5032097;28;20226;-69
2021/09/06 01:28:17;;;;;;;5.97;4.47;;;13.70;89.40;;;;;;5031951;28;20266;-69
2021/09/06 01:30:44;;;;;;;7.05;5.20;;;13.70;89.20;;;;;;5032202;28;20238;-69
2021/09/06 01:33:11;;;;;;;6.35;5.43;;;13.60;88.00;;;;;;5032285;28;20676;-69
2021/09/06 01:35:39;;;;;;;6.05;4.90;;;13.60;87.70;;;;;;5032075;28;20602;-68
2021/09/06 01:38:06;;;;;;;8.48;5.53;;;13.50;87.50;;;;;;5032072;28;20618;-69
2021/09/06 01:40:33;;;;;;;6.35;5.03;;;13.50;87.30;;;;;;5032104;28;20278;-69
2021/09/06 01:43:01;;;;;;;7.60;6.15;;;13.50;87.40;;;;;;5032163;28;20273;-70
2021/09/06 01:45:28;;;;;;;5.95;4.68;;;13.40;87.50;;;;;;5031733;28;20254;-69
2021/09/06 01:47:55;;;;;;;7.25;5.70;;;13.40;88.10;;;;;;5031869;28;20258;-69
2021/09/06 01:50:24;;;;;;;7.50;5.72;;;13.40;88.80;;;;;;5032050;28;20227;-69
2021/09/06 01:52:51;;;;;;;7.97;6.68;;;13.30;89.10;;;;;;5035822;28;20282;-69
2021/09/06 01:55:18;;;;;;;10.05;6.70;;;13.30;89.60;;;;;;5035927;28;20214;-69
2021/09/06 01:57:45;;;;;;;9.13;6.10;;;13.30;89.80;;;;;;5035996;28;20226;-70
2021/09/06 02:00:13;;;;;;;8.40;7.30;;;13.30;90.00;;;;;;5035841;28;20685;-69
2021/09/06 02:02:40;;;;;;;6.38;5.35;;;13.30;90.20;;;;;;5035883;28;20191;-69
2021/09/06 02:05:08;;;;;;;5.88;4.72;;;13.30;90.20;;;;;;5035576;28;20230;-69
2021/09/06 02:07:35;;;;;;;8.63;6.65;;;13.30;90.10;;;;;;5035593;28;20272;-69
2021/09/06 02:10:02;;;;;;;6.80;6.00;;;13.20;89.40;;;;;;5035572;28;20233;-69
2021/09/06 02:12:29;;;;;;;9.07;5.80;;;13.30;89.70;;;;;;5035468;28;20282;-69
2021/09/06 02:14:56;;;;;;;8.60;6.10;;;13.30;89.60;;;;;;5035221;28;20191;-69
2021/09/06 02:17:24;;;;;;;6.47;5.00;;;13.30;89.40;;;;;;5035188;28;20226;-69
2021/09/06 02:19:51;;;;;;;7.25;6.05;;;13.20;88.70;;;;;;5035394;28;20226;-69
2021/09/06 02:22:18;;;;;;;6.60;5.85;;;13.20;88.70;;;;;;5035229;28;20519;-69
2021/09/06 02:24:45;;;;;;;7.00;5.45;;;13.20;89.00;;;;;;5035464;28;20223;-69
2021/09/06 02:27:11;;;;;;;6.40;5.00;;;13.20;89.10;;;;;;5034811;28;20261;-69
2021/09/06 02:29:38;;;;;;;6.95;4.97;;;13.20;89.50;;;;;;5035290;28;20195;-68
2021/09/06 02:32:06;;;;;;;6.70;5.00;;;13.20;89.60;;;;;;5035035;28;20597;-69
2021/09/06 02:34:34;;;;;;;6.93;4.13;;;13.20;88.10;;;;;;5035131;28;20281;-69
2021/09/06 02:37:01;;;;;;;5.78;4.55;;;13.20;86.50;;;;;;5035279;28;20285;-69
2021/09/06 02:39:28;;;;;;;5.05;4.18;;;13.10;86.10;;;;;;5035356;28;20689;-69
2021/09/06 02:41:58;;;;;;;5.20;4.30;;;13.00;86.20;;;;;;5035210;28;20234;-68
2021/09/06 02:44:25;;;;;;;7.00;4.95;;;13.00;86.70;;;;;;5034921;28;20199;-70
2021/09/06 02:46:52;;;;;;;5.80;4.70;;;12.90;86.90;;;;;;5035101;28;20269;-70
2021/09/06 02:49:19;;;;;;;7.18;5.38;;;12.90;87.00;;;;;;5035128;28;20615;-69
2021/09/06 02:51:47;;;;;;;6.72;5.80;;;12.80;87.50;;;;;;5035334;28;20290;-69
2021/09/06 02:54:15;;;;;;;8.73;5.65;;;12.80;87.70;;;;;;5035300;28;20219;-69
2021/09/06 02:56:42;;;;;;;6.15;4.75;;;12.70;87.40;;;;;;5035227;28;20273;-69
2021/09/06 02:59:09;;;;;;;5.13;4.05;;;12.70;87.40;;;;;;5035146;28;20199;-70
2021/09/06 03:01:36;;;;;;;5.65;4.40;;;12.70;88.00;;;;;;5034799;28;20187;-69
2021/09/06 03:04:03;;;;;;;5.50;4.70;;;12.70;87.40;;;;;;5033795;28;20196;-69
2021/09/06 03:06:30;;;;;;;4.95;3.83;;;12.60;86.70;;;;;;5034692;28;20210;-69
2021/09/06 03:08:58;;;;;;;6.68;4.18;;;12.50;86.90;;;;;;5034536;28;20222;-68
2021/09/06 03:11:25;;;;;;;6.07;4.47;;;12.50;87.00;;;;;;5034783;28;20285;-69
2021/09/06 03:13:53;;;;;;;5.80;4.78;;;12.50;86.30;;;;;;5034714;28;20205;-68
2021/09/06 03:16:22;;;;;;;5.93;4.40;;;12.40;85.40;;;;;;5034724;28;20195;-69
2021/09/06 03:18:49;;;;;;;4.20;3.40;;;12.30;85.40;;;;;;5034425;28;20708;-69
2021/09/06 03:21:16;;;;;;;6.30;4.03;;;12.20;86.60;;;;;;5034633;28;20257;-69
2021/09/06 03:23:42;;;;;;;5.88;4.43;;;12.20;87.70;;;;;;5034683;28;20249;-71
2021/09/06 03:26:11;;;;;;;5.78;4.80;;;12.20;88.30;;;;;;5034531;28;20277;-68
2021/09/06 03:28:37;;;;;;;6.55;5.07;;;12.20;88.30;;;;;;5034429;28;20306;-69
2021/09/06 03:31:06;;;;;;;10.20;5.40;;;12.20;88.00;;;;;;5034453;28;20286;-69
2021/09/06 03:33:33;;;;;;;8.57;4.53;;;12.20;88.00;;;;;;5034474;28;20282;-69
2021/09/06 03:35:59;;;;;;;9.18;6.43;;;12.20;87.40;;;;;;5034415;28;20615;-68
2021/09/06 03:38:26;;;;;;;16.95;6.97;;;12.20;87.50;;;;;;5034296;28;20621;-69
2021/09/06 03:40:53;;;;;;;9.40;7.05;;;12.10;87.40;;;;;;5033913;28;20654;-69
2021/09/06 03:43:22;;;;;;;10.05;6.80;;;12.10;87.10;;;;;;5034202;28;20325;-71
2021/09/06 03:45:48;;;;;;;9.88;6.35;;;12.10;86.80;;;;;;5033894;28;20314;-69
2021/09/06 03:48:15;;;;;;;6.63;5.22;;;12.00;87.60;;;;;;5033915;28;20314;-69
2021/09/06 03:50:42;;;;;;;7.70;6.20;;;12.00;86.90;;;;;;5034062;28;20627;-73
2021/09/06 03:53:09;;;;;;;7.55;6.00;;;12.00;87.00;;;;;;5033909;28;20242;-69
2021/09/06 03:55:36;;;;;;;6.05;5.18;;;12.00;88.10;;;;;;5033964;28;20187;-68
2021/09/06 03:58:03;;;;;;;7.35;5.20;;;12.00;88.70;;;;;;5034051;28;20230;-69
2021/09/06 04:00:32;;;;;;;6.40;5.07;;;12.00;89.00;;;;;;5033724;28;20274;-68
2021/09/06 04:02:59;;;;;;;6.45;5.15;;;12.00;88.80;;;;;;5034168;28;20237;-69
2021/09/06 04:05:25;;;;;;;6.00;3.90;;;11.90;88.20;;;;;;5033917;28;20230;-72
2021/09/06 04:07:52;;;;;;;6.20;5.00;;;11.80;88.40;;;;;;5033946;28;20309;-68
2021/09/06 04:10:19;;;;;;;7.85;5.60;;;11.80;89.30;;;;;;5034015;28;20252;-69
2021/09/06 04:12:46;;;;;;;7.80;6.38;;;11.80;89.60;;;;;;5033982;28;20355;-69
2021/09/06 04:15:13;;;;;;;8.35;6.03;;;11.80;90.10;;;;;;5033523;28;20289;-69
2021/09/06 04:17:41;;;;;;;9.80;6.57;;;11.80;90.00;;;;;;5033938;28;20264;-69
2021/09/06 04:20:10;;;;;;;7.75;6.18;;;11.80;90.00;;;;;;5033887;28;20747;-68
2021/09/06 04:22:39;;;;;;;10.98;7.57;;;11.80;89.60;;;;;;5033813;28;20239;-68
2021/09/06 04:25:06;;;;;;;8.65;7.43;;;11.80;89.20;;;;;;5033401;28;20680;-68
2021/09/06 04:27:33;;;;;;;9.23;6.75;;;11.80;89.60;;;;;;5033359;28;20368;-69
2021/09/06 04:30:00;;;;;;;10.10;7.20;;;11.80;89.30;;;;;;5033658;28;20523;-70
2021/09/06 04:32:27;;;;;;;8.45;6.40;;;11.80;89.20;;;;;;5033294;28;20230;-69
2021/09/06 04:34:56;;;;;;;7.07;5.68;;;11.80;89.30;;;;;;5033649;28;20222;-68
2021/09/06 04:37:23;;;;;;;5.70;5.10;;;11.80;89.70;;;;;;5033595;28;20285;-69
2021/09/06 04:39:50;;;;;;;6.10;4.50;;;11.80;89.70;;;;;;5029859;28;20187;-69
2021/09/06 04:42:17;;;;;;;9.77;5.30;;;11.80;88.30;;;;;;5032201;28;20230;-70
2021/09/06 04:44:45;;;;;;;6.57;4.80;;;11.80;88.00;;;;;;5026271;28;20585;-69
2021/09/06 04:47:12;;;;;;;6.70;4.65;;;11.70;89.10;;;;;;5012927;28;20196;-69
2021/09/06 04:49:39;;;;;;;6.88;4.47;;;11.70;89.40;;;;;;5013195;28;20561;-69
2021/09/06 04:52:08;;;;;;;7.00;4.75;;;11.80;90.00;;;;;;5027271;28;20195;-69
2021/09/06 04:54:35;;;;;;;12.48;6.90;;;11.80;90.10;;;;;;5015986;28;20558;-69
2021/09/06 04:57:02;;;;;;;5.40;4.65;;;11.80;90.30;;;;;;5020534;28;20195;-71
2021/09/06 04:59:29;;;;;;;5.20;4.70;;;11.80;90.50;;;;;;5017400;28;20187;-70
2021/09/06 05:01:56;;;;;;;5.70;4.47;;;11.80;90.50;;;;;;5029545;28;20341;-69
2021/09/06 05:04:23;;;;;;;6.50;4.63;;;11.70;90.60;;;;;;5029996;28;20213;-68
2021/09/06 05:06:51;;;;;;;7.43;5.25;;;11.60;90.60;;;;;;5029756;28;20228;-69
2021/09/06 05:09:20;;;;;;;8.05;4.80;;;11.60;91.10;;;;;;5029069;28;20214;-71
2021/09/06 05:11:48;;;;;;;9.57;4.95;;;11.60;91.20;;;;;;5019764;28;20180;-69
2021/09/06 05:14:15;;;;;;;9.10;4.80;;;11.60;91.10;;;;;;5029853;28;20642;-69
2021/09/06 05:16:42;;;;;;;12.68;4.82;;;11.70;90.90;;;;;;5029313;28;20179;-69
2021/09/06 05:19:09;;;;;;;7.43;4.78;;;11.70;90.90;;;;;;5029484;28;20199;-69
2021/09/06 05:21:36;;;;;;;9.13;5.65;;;11.70;91.00;;;;;;5029432;28;20201;-69
2021/09/06 05:24:04;;;;;;;9.05;5.35;;;11.70;91.40;;;;;;5022996;28;20199;-74
2021/09/06 05:26:33;;;;;;;6.18;4.60;;;11.70;91.60;;;;;;5019803;28;20187;-69
2021/09/06 05:29:00;;;;;;;6.35;4.13;;;11.80;91.60;;;;;;5020036;28;20309;-70
2021/09/06 05:31:28;;;;;;;6.28;5.10;;;11.90;91.60;;;;;;5016440;28;20623;-69
2021/09/06 05:33:55;;;;;;;7.82;6.35;;;11.90;91.60;;;;;;5020198;28;20269;-69
2021/09/06 05:36:22;;;;;;;9.10;6.00;;;11.90;92.00;;;;;;5033505;28;20199;-70
2021/09/06 05:38:49;;;;;;;8.75;6.70;;;12.00;92.10;;;;;;5018903;28;20217;-69
2021/09/06 05:41:19;;;;;;;8.43;6.00;;;12.00;92.20;;;;;;5033984;28;20191;-70
2021/09/06 05:43:51;;;;;;;7.78;5.10;;;12.10;92.20;;;;;;5032997;28;20560;-70
2021/09/06 05:46:18;;;;;;;7.72;5.78;;;12.10;92.30;;;;;;5023847;28;20246;-70
2021/09/06 05:48:45;;;;;;;7.20;6.05;;;12.20;92.40;;;;;;5017607;28;20686;-69
2021/09/06 05:51:12;;;;;;;8.15;6.20;;;12.40;92.60;;;;;;5033647;28;20642;-69
2021/09/06 05:53:39;;;;;;;8.20;5.15;;;12.50;92.80;;;;;;5032602;28;20198;-73
2021/09/06 05:56:07;;;;;;;5.30;4.47;;;12.60;92.90;;;;;;5015906;28;20666;-69
2021/09/06 05:58:34;;;;;;;6.68;4.82;;;12.70;92.90;;;;;;5019930;28;20592;-68
2021/09/06 06:01:02;;;;;;;5.53;3.97;;;12.90;92.80;;;;;;5016071;28;20283;-69
2021/09/06 06:03:29;;;;;;;7.22;4.43;;;13.00;92.60;;;;;;5026495;28;20608;-70
2021/09/06 06:05:56;;;;;;;8.23;4.72;;;13.10;92.40;;;;;;5033338;28;20206;-69
2021/09/06 06:08:23;;;;;;;6.85;4.90;;;13.20;92.30;;;;;;5033674;28;21463;-69
2021/09/06 06:10:50;;;;;;;8.15;6.25;;;13.30;92.20;;;;;;5023095;28;20306;-69
2021/09/06 06:13:17;;;;;;;6.47;5.70;;;13.40;92.50;;;;;;5013742;28;20271;-69
2021/09/06 06:15:44;;;;;;;6.10;5.20;;;13.50;92.70;;;;;;5014853;28;20286;-69
2021/09/06 06:18:12;;;;;;;6.07;5.18;;;13.70;92.70;;;;;;5015105;28;20655;-69
2021/09/06 06:20:39;;;;;;;11.18;6.20;;;13.80;93.20;;;;;;5032281;28;20187;-69
2021/09/06 06:23:06;;;;;;;11.13;6.53;;;13.90;92.90;;;;;;5032353;28;20620;-69
2021/09/06 06:25:33;;;;;;;7.32;5.68;;;14.10;93.00;;;;;;5025029;28;20278;-69
2021/09/06 06:28:00;;;;;;;7.17;6.20;;;14.20;93.10;;;;;;5015316;28;20660;-69
2021/09/06 06:30:27;;;;;;;7.57;6.20;;;14.40;93.10;;;;;;5028818;28;21159;-69
2021/09/06 06:32:54;;;;;;;7.87;6.60;;;14.50;93.00;;;;;;5017101;28;20537;-70
2021/09/06 06:35:22;;;;;;;7.00;5.70;;;14.60;92.60;;;;;;5024353;28;20441;-69
2021/09/06 06:37:50;;;;;;;8.83;6.10;;;14.80;92.70;;;;;;5030961;28;20922;-69
2021/09/06 06:40:17;;;;;;;7.47;6.00;;;14.90;92.40;;;;;;5033220;28;20517;-69
2021/09/06 06:42:44;;;;;;;9.83;7.03;;;15.00;92.30;;;;;;5034373;28;20434;-70
2021/09/06 06:45:12;;;;;;;7.40;6.00;;;15.10;92.10;;;;;;5035135;28;20504;-69
2021/09/06 06:47:39;;;;;;;7.83;6.40;;;15.20;91.90;;;;;;5035410;28;20853;-70
2021/09/06 06:50:06;;;;;;;9.47;7.00;;;15.40;91.80;;;;;;5034961;28;20485;-69
2021/09/06 06:52:35;;;;;;;9.80;7.10;;;15.60;92.20;;;;;;5035119;28;20438;-69
2021/09/06 06:55:02;;;;;;;7.20;6.00;;;15.80;92.30;;;;;;5034966;28;20430;-69
2021/09/06 06:57:29;;;;;;;10.77;6.40;;;16.00;92.10;;;;;;5034882;28;20452;-69
2021/09/06 06:59:56;;;;;;;12.93;6.83;;;16.10;92.20;;;;;;5035090;28;20446;-70
2021/09/06 07:02:23;;;;;;;12.07;7.97;;;16.30;92.10;;;;;;5034957;28;20838;-69
2021/09/06 07:04:50;;;;;;;10.77;7.93;;;16.50;92.20;;;;;;5034830;28;20480;-70
2021/09/06 07:07:16;;;;;;;8.30;6.37;;;16.80;91.90;;;;;;5034859;28;20525;-69
2021/09/06 07:09:45;;;;;;;7.60;6.77;;;17.10;91.40;;;;;;5034815;28;20995;-73
2021/09/06 07:12:12;;;;;;;7.07;6.37;;;17.40;90.70;;;;;;5034907;28;20517;-69
2021/09/06 07:14:39;;;;;;;6.13;5.40;;;17.70;90.70;;;;;;5034952;28;20473;-69
2021/09/06 07:17:06;;;;;;;6.70;5.30;;;18.10;89.40;;;;;;5034601;28;20434;-70
2021/09/06 07:19:33;;;;;;;7.13;6.43;;;18.50;89.70;;;;;;5035126;28;20857;-70
2021/09/06 07:22:01;;;;;;;8.97;7.00;;;19.00;88.00;;;;;;5034222;28;20532;-70
2021/09/06 07:24:28;;;;;;;10.17;6.37;;;19.50;86.70;;;;;;5035039;28;20850;-70
2021/09/06 07:26:56;;;;;;;7.20;5.93;;;20.30;83.80;;;;;;5034663;28;20904;-69
2021/09/06 07:29:23;;;;;;;7.23;5.40;;;21.10;84.40;;;;;;5034815;28;20572;-69
2021/09/06 07:31:51;;;;;;;11.03;5.67;;;22.20;83.40;;;;;;5034855;28;20469;-69
2021/09/06 07:34:18;;;;;;;10.80;5.53;;;23.50;74.30;;;;;;5034786;28;20442;-70
2021/09/06 07:36:45;;;;;;;7.17;5.67;;;24.90;68.70;;;;;;5034607;28;20521;-70
2021/09/06 07:39:16;;;;;;;6.50;5.33;;;27.40;58.70;;;;;;5034710;28;20530;-70
2021/09/06 07:41:43;;;;;;;6.73;5.17;;;29.80;50.90;;;;;;5034492;28;20792;-70
2021/09/06 07:44:11;;;;;;;6.67;5.97;;;31.90;45.70;;;;;;5034592;28;20449;-70
2021/09/06 07:46:38;;;;;;;7.33;6.10;;;33.60;39.60;;;;;;5034604;28;20500;-70
2021/09/06 07:49:05;;;;;;;6.50;5.00;;;35.20;35.60;;;;;;5033577;28;20528;-70
2021/09/06 07:51:32;;;;;;;5.87;5.03;;;36.60;33.60;;;;;;5034187;28;20498;-70
2021/09/06 07:54:00;;;;;;;6.00;5.40;;;37.80;32.10;;;;;;5034125;28;20525;-70
2021/09/06 07:56:27;;;;;;;5.60;5.00;;;39.00;28.10;;;;;;5034331;28;20446;-71
2021/09/06 07:58:54;;;;;;;6.90;6.20;;;39.90;28.60;;;;;;5034236;28;20441;-70
2021/09/06 08:01:23;;;;;;;5.87;4.70;;;41.00;24.70;;;;;;5034081;28;20480;-71
2021/09/06 08:03:50;;;;;;;8.63;6.20;;;41.80;23.80;;;;;;5031270;28;21099;-71
2021/09/06 08:06:17;;;;;;;5.80;5.20;;;42.40;23.30;;;;;;5033350;28;20528;-68
2021/09/06 08:08:43;;;;;;;6.40;5.80;;;43.30;21.90;;;;;;5033554;28;20975;-68
2021/09/06 08:11:10;;;;;;;5.23;4.73;;;43.90;22.40;;;;;;5033928;28;20531;-69
2021/09/06 08:13:37;;;;;;;8.40;5.57;;;44.60;21.50;;;;;;5033935;28;20529;-68
2021/09/06 08:16:05;;;;;;;9.63;5.43;;;45.30;20.70;;;;;;5033322;28;20525;-68
2021/09/06 08:18:33;;;;;;;8.73;6.10;;;46.00;19.90;;;;;;5033635;28;20473;-69
2021/09/06 08:21:00;;;;;;;5.57;5.03;;;46.40;18.50;;;;;;5033558;28;20484;-68
2021/09/06 08:23:28;;;;;;;5.77;5.27;;;46.80;19.00;;;;;;5033396;28;20445;-69
2021/09/06 08:25:54;;;;;;;5.40;4.90;;;47.10;18.70;;;;;;5033159;28;20572;-69
2021/09/06 08:28:22;;;;;;;10.67;5.30;;;47.80;17.80;;;;;;5033919;28;20465;-69
2021/09/06 08:30:48;;;;;;;6.00;5.10;;;48.30;17.80;;;;;;5032301;28;20609;-69
2021/09/06 08:33:16;;;;;;;7.90;5.23;;;48.70;17.50;;;;;;5033426;28;20449;-69
2021/09/06 08:35:46;;;;;;;5.57;5.07;;;49.30;17.10;;;;;;5033448;28;20480;-69
2021/09/06 08:38:13;;;;;;;6.40;4.63;;;49.80;17.00;;;;;;5033470;28;20441;-69
2021/09/06 08:40:40;;;;;;;7.17;5.50;;;50.20;16.20;;;;;;5033121;28;20481;-69
2021/09/06 08:43:07;;;;;;;6.13;5.40;;;50.60;15.90;;;;;;5021280;28;20533;-68
2021/09/06 08:45:36;;;;;;;5.80;5.20;;;51.00;15.80;;;;;;5021201;28;20537;-69
2021/09/06 08:48:05;;;;;;;5.70;5.10;;;51.40;15.30;;;;;;5022879;28;20962;-70
2021/09/06 08:50:32;;;;;;;10.07;5.13;;;51.60;16.00;;;;;;5024050;28;20481;-69
2021/09/06 08:53:01;;;;;;;6.30;5.60;;;51.90;15.00;;;;;;5020772;28;20521;-69
2021/09/06 08:55:28;;;;;;;5.80;5.30;;;52.20;14.00;;;;;;5023314;28;20450;-70
2021/09/06 08:57:55;;;;;;;6.03;5.00;;;52.40;14.60;;;;;;5020326;28;20480;-76
2021/09/06 09:00:27;;;;;;;11.30;5.10;;;52.70;14.30;;;;;;5022189;28;20578;-69
2021/09/06 09:02:54;;;;;;;4.90;4.40;;;52.80;13.90;;;;;;5021537;28;20444;-69
2021/09/06 09:05:21;;;;;;;5.67;4.90;;;53.20;14.30;;;;;;5022091;28;20839;-69
2021/09/06 09:07:56;;;;;;;5.80;5.30;;;53.70;13.60;;;;;;5021781;28;20492;-69
2021/09/06 09:10:28;;;;;;;4.93;4.40;;;54.10;13.90;;;;;;5021959;28;20469;-70
2021/09/06 09:13:03;;;;;;;6.43;4.90;;;54.30;13.10;;;;;;5022455;28;20983;-69
2021/09/06 09:15:31;;;;;;;9.23;4.70;;;54.70;12.70;;;;;;5020652;28;20446;-70
2021/09/06 09:17:58;;;;;;;5.53;5.00;;;54.80;12.10;;;;;;5021590;28;20496;-69
2021/09/06 09:20:37;;;;;;;4.93;4.53;;;55.10;12.40;;;;;;5021925;28;20482;-69
2021/09/06 09:23:05;;;;;;;5.13;4.63;;;55.40;12.20;;;;;;5020508;28;20521;-69
2021/09/06 09:25:36;;;;;;;5.83;5.23;;;55.60;11.90;;;;;;5022387;28;20445;-69
2021/09/06 09:28:05;;;;;;;5.50;5.10;;;56.00;12.00;;;;;;5020142;28;20446;-69
2021/09/06 09:30:33;;;;;;;5.83;4.77;;;56.20;11.70;;;;;;5022584;28;20489;-70
2021/09/06 09:33:08;;;;;;;5.80;5.30;;;56.50;11.50;;;;;;5020768;28;20999;-70
2021/09/06 09:35:36;;;;;;;6.20;5.60;;;56.60;11.40;;;;;;5022940;28;20880;-69
2021/09/06 09:38:05;;;;;;;5.37;4.87;;;56.60;11.30;;;;;;5020287;28;20445;-69
2021/09/06 09:40:39;;;;;;;4.80;4.40;;;56.70;11.50;;;;;;5021329;28;20593;-70
2021/09/06 09:43:07;;;;;;;8.03;4.70;;;56.70;11.20;;;;;;5021187;28;20438;-69
2021/09/06 09:45:35;;;;;;;6.50;5.50;;;56.80;11.00;;;;;;5021628;28;20513;-70
2021/09/06 09:48:03;;;;;;;5.37;4.57;;;57.10;11.10;;;;;;5021303;28;20446;-69
2021/09/06 09:50:32;;;;;;;6.20;4.90;;;57.20;11.30;;;;;;5020933;28;20917;-69
2021/09/06 09:52:59;;;;;;;5.40;4.90;;;57.40;11.30;;;;;;5022088;28;20449;-69
2021/09/06 09:55:27;;;;;;;5.10;4.70;;;57.50;10.60;;;;;;5020376;28;20450;-73
2021/09/06 09:57:56;;;;;;;5.23;4.83;;;57.60;10.80;;;;;;5021568;28;20442;-69
2021/09/06 10:00:23;;;;;;;5.10;4.60;;;57.60;11.20;;;;;;5019832;28;20570;-69
2021/09/06 10:02:53;;;;;;;5.03;4.63;;;57.70;10.80;;;;;;5020105;28;20493;-70
2021/09/06 10:05:24;;;;;;;6.50;5.13;;;57.70;10.70;;;;;;5017689;28;20517;-69
2021/09/06 10:07:52;;;;;;;5.67;5.17;;;57.80;10.80;;;;;;5022865;28;20484;-70
2021/09/06 10:10:21;;;;;;;5.70;5.10;;;57.90;10.50;;;;;;5019754;28;20450;-71
2021/09/06 10:12:49;;;;;;;5.13;4.53;;;57.90;10.60;;;;;;5025026;28;20463;-70
2021/09/06 10:15:17;;;;;;;7.93;6.27;;;58.00;10.80;;;;;;5024136;28;20450;-70
2021/09/06 10:17:48;;;;;;;9.23;5.80;;;58.10;10.60;;;;;;5023654;28;20442;-71
2021/09/06 10:20:21;;;;;;;5.57;5.07;;;58.00;10.40;;;;;;5025890;28;20572;-69
2021/09/06 10:23:00;;;;;;;5.07;4.57;;;58.10;10.80;;;;;;5023789;28;20516;-69
2021/09/06 10:25:30;;;;;;;5.10;4.70;;;58.20;10.50;;;;;;5023511;28;20446;-69
2021/09/06 10:28:03;;;;;;;4.70;4.30;;;58.40;10.00;;;;;;5023110;28;20500;-69
2021/09/06 10:30:37;;;;;;;5.17;4.47;;;58.10;10.20;;;;;;5022931;28;20878;-69
2021/09/06 10:33:04;;;;;;;5.00;4.60;;;58.20;10.40;;;;;;5025918;28;20528;-69
2021/09/06 10:35:32;;;;;;;4.93;4.43;;;58.20;10.20;;;;;;5023660;28;20474;-69
2021/09/06 10:38:05;;;;;;;5.47;4.97;;;58.10;10.20;;;;;;5022338;28;20521;-69
2021/09/06 10:40:34;;;;;;;5.47;5.07;;;58.20;10.30;;;;;;5025757;28;20477;-69
2021/09/06 10:43:12;;;;;;;5.07;4.67;;;58.20;10.00;;;;;;5023191;28;20948;-69
2021/09/06 10:45:41;;;;;;;4.97;4.50;;;58.10;10.20;;;;;;5024902;28;20469;-69
2021/09/06 10:48:08;;;;;;;8.83;4.43;;;58.00;9.80;;;;;;5026132;28;20477;-70
2021/09/06 10:50:38;;;;;;;5.27;4.87;;;58.00;9.60;;;;;;5023343;28;20447;-69
2021/09/06 10:53:05;;;;;;;5.07;4.67;;;57.90;9.80;;;;;;5022096;28;20450;-69
2021/09/06 10:55:32;;;;;;;4.90;4.50;;;58.00;10.30;;;;;;5026054;28;20450;-69
2021/09/06 10:58:00;;;;;;;5.07;4.57;;;58.00;9.80;;;;;;5026193;28;20525;-69
2021/09/06 11:00:27;;;;;;;4.50;4.10;;;58.00;9.10;;;;;;5019061;28;20494;-69
2021/09/06 11:02:55;;;;;;;4.30;3.90;;;57.60;10.10;;;;;;5015616;28;20441;-69
2021/09/06 11:05:24;;;;;;;4.90;4.40;;;57.60;9.70;;;;;;5015446;28;20447;-69
2021/09/06 11:07:52;;;;;;;5.20;4.40;;;57.30;9.80;;;;;;5014970;28;20530;-69
2021/09/06 11:10:22;;;;;;;5.90;4.40;;;56.70;9.90;;;;;;5015149;28;20442;-70
2021/09/06 11:13:18;;;;;;;10.10;4.80;;;55.80;10.20;;;;;;5015404;28;20435;-70
2021/09/06 11:15:45;;;;;;;5.37;4.87;;;54.80;9.80;;;;;;5019061;28;20521;-70
2021/09/06 11:18:13;;;;;;;7.00;4.23;;;53.60;10.60;;;;;;5035031;28;20983;-69
2021/09/06 11:20:40;;;;;;;4.87;4.47;;;52.60;11.20;;;;;;5034894;28;20509;-69
2021/09/06 11:23:09;;;;;;;4.87;4.47;;;51.50;11.60;;;;;;5034153;28;20492;-69
2021/09/06 11:25:38;;;;;;;6.90;4.50;;;50.30;11.50;;;;;;5034157;28;20449;-69
2021/09/06 11:28:08;;;;;;;6.73;4.90;;;49.40;12.00;;;;;;5034787;28;20445;-69
2021/09/06 11:30:39;;;;;;;7.67;4.43;;;48.70;12.60;;;;;;5034370;28;20457;-68
2021/09/06 11:33:09;;;;;;;6.30;5.10;;;47.90;11.80;;;;;;5034578;28;20520;-69
2021/09/06 11:35:39;;;;;;;4.63;4.23;;;47.20;11.90;;;;;;5034562;28;20442;-69
2021/09/06 11:38:06;;;;;;;4.97;4.57;;;46.40;13.20;;;;;;5034384;28;20488;-73
2021/09/06 11:40:34;;;;;;;4.63;4.23;;;45.60;13.70;;;;;;5033680;28;20984;-69
2021/09/06 11:43:03;;;;;;;4.70;4.20;;;45.10;13.70;;;;;;5031793;28;21008;-70
2021/09/06 11:45:30;;;;;;;4.00;3.60;;;44.50;13.30;;;;;;5034337;28;20501;-69
2021/09/06 11:48:01;;;;;;;4.53;4.13;;;43.90;14.60;;;;;;5033947;28;20975;-68
2021/09/06 11:50:31;;;;;;;6.17;5.03;;;43.40;14.40;;;;;;5034143;28;20496;-68
2021/09/06 11:53:05;;;;;;;5.03;4.63;;;42.90;16.00;;;;;;5032213;28;20442;-69
2021/09/06 11:55:33;;;;;;;4.83;4.40;;;42.50;15.60;;;;;;5034019;28;20953;-68
2021/09/06 11:58:07;;;;;;;5.40;4.70;;;42.10;16.80;;;;;;5034457;28;20532;-70
2021/09/06 12:00:36;;;;;;;4.77;4.27;;;41.70;17.00;;;;;;5034197;28;20554;-68
2021/09/06 12:03:04;;;;;;;6.10;4.80;;;41.20;16.40;;;;;;5033880;28;20444;-68
2021/09/06 12:05:39;;;;;;;5.30;4.40;;;40.70;16.20;;;;;;5034042;28;20521;-68
2021/09/06 12:08:11;;;;;;;5.33;4.50;;;40.30;16.90;;;;;;5034071;28;20437;-68
2021/09/06 12:10:39;;;;;;;4.63;4.23;;;40.00;18.10;;;;;;5034061;28;20991;-68
2021/09/06 12:13:08;;;;;;;7.20;4.17;;;39.70;17.40;;;;;;5033943;28;20487;-68
2021/09/06 12:15:37;;;;;;;8.70;5.10;;;39.30;17.90;;;;;;5033926;28;20446;-69
2021/09/06 12:18:12;;;;;;;4.87;4.30;;;38.90;18.00;;;;;;5033852;28;20524;-69
2021/09/06 12:20:40;;;;;;;5.73;5.17;;;38.40;17.30;;;;;;5033577;28;20569;-68
2021/09/06 12:23:14;;;;;;;5.60;5.10;;;37.90;19.20;;;;;;5033351;28;20517;-69
2021/09/06 12:25:42;;;;;;;7.03;4.87;;;37.30;19.00;;;;;;5033820;28;20529;-69
2021/09/06 12:28:11;;;;;;;6.73;5.40;;;36.70;19.80;;;;;;5033790;28;20450;-68
2021/09/06 12:30:39;;;;;;;5.30;4.63;;;36.20;19.80;;;;;;5033790;28;20481;-70
2021/09/06 12:33:07;;;;;;;5.30;4.80;;;35.80;20.50;;;;;;5033178;28;20438;-68
2021/09/06 12:35:34;;;;;;;5.53;4.93;;;35.50;21.20;;;;;;5033110;28;20442;-68
2021/09/06 12:38:01;;;;;;;6.10;4.80;;;35.10;22.50;;;;;;5033520;28;20462;-68
2021/09/06 12:40:30;;;;;;;5.13;4.63;;;34.70;22.70;;;;;;5033531;28;20489;-68
2021/09/06 12:42:57;;;;;;;5.27;4.77;;;34.40;22.80;;;;;;5033361;28;20532;-68
2021/09/06 12:45:25;;;;;;;5.67;4.53;;;34.20;21.70;;;;;;5033228;28;20813;-67
2021/09/06 12:47:51;;;;;;;5.60;4.90;;;33.70;21.40;;;;;;5033266;28;20481;-70
2021/09/06 12:50:19;;;;;;;5.53;4.80;;;33.40;23.20;;;;;;5033410;28;20453;-69